Time;durP1;ratioP1;P1;durP2;ratioP2;P2;SDS_P1;SDS_P2;PMS_P1;PMS_P2;Temp;Humidity;BMP_temperature;BMP_pressure;BME280_temperature;BME280_humidity;BME280_pressure;Samples;Min_cycle;Max_cycle;Signal;HPM_P1;HPM_P2
2024/01/26 00:01:46;;;;;;;3.72;1.73;;;;;;;-146.30;100.00;58188.94;10374030;28;20061;-88
2024/01/26 00:06:48;;;;;;;3.08;1.90;;;;;;;-146.30;100.00;58188.94;10365455;28;20050;-88
2024/01/26 00:11:50;;;;;;;2.50;1.02;;;;;;;-146.30;100.00;58188.94;10387746;28;20060;-88
2024/01/26 00:16:52;;;;;;;3.38;1.85;;;;;;;-146.30;100.00;58188.94;10370280;28;20481;-89
2024/01/26 00:21:54;;;;;;;1.92;1.73;;;;;;;-146.30;100.00;58188.94;10399595;28;20053;-89
2024/01/26 00:26:56;;;;;;;0.95;0.90;;;;;;;-146.30;100.00;58188.94;10390986;28;20046;-89
2024/01/26 00:31:58;;;;;;;3.80;1.20;;;;;;;-146.30;100.00;58188.94;10384971;28;20050;-88
2024/01/26 00:37:01;;;;;;;0.60;0.50;;;;;;;-146.30;100.00;58188.94;10366795;28;20112;-89
2024/01/26 00:42:04;;;;;;;2.33;1.25;;;;;;;-146.30;100.00;58188.94;10393277;28;20169;-90
2024/01/26 00:47:06;;;;;;;4.00;1.90;;;;;;;-146.30;100.00;58188.94;10390464;28;20049;-90
2024/01/26 00:52:08;;;;;;;3.03;1.38;;;;;;;-146.30;100.00;58188.94;10378079;28;20438;-89
2024/01/26 00:57:09;;;;;;;2.83;1.65;;;;;;;-146.30;100.00;58188.94;10372891;28;20064;-90
2024/01/26 01:02:11;;;;;;;2.75;1.67;;;;;;;-146.30;100.00;58188.94;10384740;28;20112;-89
2024/01/26 01:07:13;;;;;;;2.40;1.40;;;;;;;-146.30;100.00;58188.94;10384815;28;20046;-89
2024/01/26 01:12:15;;;;;;;3.83;1.60;;;;;;;-146.30;100.00;58188.94;10389225;28;20482;-92
2024/01/26 01:17:17;;;;;;;0.73;0.73;;;;;;;-146.30;100.00;58188.94;10369990;28;20049;-90
2024/01/26 01:22:18;;;;;;;2.17;1.42;;;;;;;-146.30;100.00;58188.94;10378480;28;20053;-89
2024/01/26 01:27:20;;;;;;;1.25;1.10;;;;;;;-146.30;100.00;58188.94;10358688;28;20080;-89
2024/01/26 01:32:22;;;;;;;1.15;1.05;;;;;;;-146.30;100.00;58188.94;10380550;28;20121;-89
2024/01/26 01:37:24;;;;;;;4.57;1.20;;;;;;;-146.30;100.00;58188.94;10361110;28;20133;-90
2024/01/26 01:42:25;;;;;;;0.68;0.68;;;;;;;-146.30;100.00;58188.94;10370231;28;20580;-90
2024/01/26 01:47:27;;;;;;;1.70;1.23;;;;;;;-146.30;100.00;58188.94;10356230;28;20068;-91
2024/01/26 01:52:30;;;;;;;2.58;1.88;;;;;;;-146.30;100.00;58188.94;10390986;28;20124;-89
2024/01/26 01:57:37;;;;;;;1.98;1.50;;;;;;;-146.30;100.00;58188.94;10362400;28;20042;-89
2024/01/26 02:02:39;;;;;;;3.33;2.17;;;;;;;-146.30;100.00;58188.94;10384924;28;20073;-89
2024/01/26 02:07:41;;;;;;;2.53;2.10;;;;;;;-146.30;100.00;58188.94;10373163;28;20405;-90
2024/01/26 02:12:44;;;;;;;1.58;1.08;;;;;;;-146.30;100.00;58188.94;10384163;28;20049;-90
2024/01/26 02:17:45;;;;;;;1.85;0.77;;;;;;;-146.30;100.00;58188.94;10382782;28;20120;-90
2024/01/26 02:22:47;;;;;;;0.88;0.60;;;;;;;-146.30;100.00;58188.94;10368066;28;20100;-87
2024/01/26 02:27:52;;;;;;;1.67;1.15;;;;;;;-146.30;100.00;58188.94;10371283;28;20056;-92
2024/01/26 02:32:54;;;;;;;2.53;1.42;;;;;;;-146.30;100.00;58188.94;10368680;28;20045;-88
2024/01/26 02:37:56;;;;;;;2.13;1.02;;;;;;;-146.30;100.00;58188.94;10385510;28;20507;-89
2024/01/26 02:42:58;;;;;;;2.42;1.65;;;;;;;-146.30;100.00;58188.94;10399271;28;20183;-90
2024/01/26 02:48:00;;;;;;;1.65;1.20;;;;;;;-146.30;100.00;58188.94;10381293;28;20070;-89
2024/01/26 02:53:02;;;;;;;3.10;1.00;;;;;;;-146.30;100.00;58188.94;10385356;28;20068;-88
2024/01/26 02:58:04;;;;;;;1.33;0.82;;;;;;;-146.30;100.00;58188.94;10368594;28;20050;-89
2024/01/26 03:03:06;;;;;;;0.70;0.30;;;;;;;-146.30;100.00;58188.94;10374415;28;20054;-87
2024/01/26 03:08:08;;;;;;;0.85;0.47;;;;;;;-146.30;100.00;58188.94;10366140;28;20056;-88
2024/01/26 03:13:10;;;;;;;1.00;0.90;;;;;;;-146.30;100.00;58188.94;10375668;28;20049;-90
2024/01/26 03:18:11;;;;;;;1.33;0.77;;;;;;;-146.30;100.00;58188.94;10381837;28;20657;-90
2024/01/26 03:23:14;;;;;;;0.40;0.40;;;;;;;-146.30;100.00;58188.94;10398407;28;20384;-89
2024/01/26 03:28:16;;;;;;;0.93;0.40;;;;;;;-146.30;100.00;58188.94;10364607;28;20251;-89
2024/01/26 03:33:17;;;;;;;1.38;0.43;;;;;;;-146.30;100.00;58188.94;10359122;28;20065;-89
2024/01/26 03:38:20;;;;;;;1.52;1.20;;;;;;;-146.30;100.00;58188.94;10358913;28;20076;-90
2024/01/26 03:43:21;;;;;;;1.00;0.88;;;;;;;-146.30;100.00;58188.94;10378081;28;20115;-89
2024/01/26 03:48:23;;;;;;;0.70;0.45;;;;;;;-146.30;100.00;58188.94;10368727;28;20050;-89
2024/01/26 03:53:25;;;;;;;0.57;0.55;;;;;;;-146.30;100.00;58188.94;10374555;28;20100;-88
2024/01/26 03:58:27;;;;;;;1.00;0.80;;;;;;;-146.30;100.00;58188.94;10355891;28;20470;-89
2024/01/26 04:03:29;;;;;;;1.38;0.50;;;;;;;-146.30;100.00;58188.94;10386385;28;20069;-90
2024/01/26 04:08:31;;;;;;;0.47;0.45;;;;;;;-146.30;100.00;58188.94;10366290;28;20042;-88
2024/01/26 04:13:33;;;;;;;0.85;0.52;;;;;;;-146.30;100.00;58188.94;10396791;28;20038;-89
2024/01/26 04:18:35;;;;;;;1.55;1.10;;;;;;;-146.30;100.00;58188.94;10382891;28;20065;-88
2024/01/26 04:23:37;;;;;;;1.25;0.73;;;;;;;-146.30;100.00;58188.94;10365098;28;20045;-89
2024/01/26 04:28:39;;;;;;;0.17;0.15;;;;;;;-146.30;100.00;58188.94;10364793;28;20144;-89
2024/01/26 04:33:41;;;;;;;1.08;0.98;;;;;;;-146.30;100.00;58188.94;10372587;28;20045;-87
2024/01/26 04:38:43;;;;;;;1.05;0.52;;;;;;;-146.30;100.00;58188.94;10372203;28;20606;-86
2024/01/26 04:43:44;;;;;;;1.05;0.70;;;;;;;-146.30;100.00;58188.94;10371049;28;20528;-87
2024/01/26 04:48:46;;;;;;;0.17;0.17;;;;;;;-146.30;100.00;58188.94;10377297;28;20073;-86
2024/01/26 04:53:48;;;;;;;1.50;0.60;;;;;;;-146.30;100.00;58188.94;10402548;28;20077;-87
2024/01/26 04:58:50;;;;;;;0.55;0.32;;;;;;;-146.30;100.00;58188.94;10377586;28;20473;-87
2024/01/26 05:03:51;;;;;;;0.68;0.52;;;;;;;-146.30;100.00;58188.94;10380034;28;20076;-85
2024/01/26 05:08:53;;;;;;;0.85;0.68;;;;;;;-146.30;100.00;58188.94;10399160;28;20148;-87
2024/01/26 05:13:55;;;;;;;1.67;0.70;;;;;;;-146.30;100.00;58188.94;10378900;28;20815;-89
2024/01/26 05:18:57;;;;;;;0.28;0.10;;;;;;;-146.30;100.00;58188.94;10361557;28;20104;-86
2024/01/26 05:23:59;;;;;;;0.30;0.30;;;;;;;-146.30;100.00;58188.94;10378846;28;20484;-87
2024/01/26 05:29:01;;;;;;;1.45;0.28;;;;;;;-146.30;100.00;58188.94;10367220;28;20058;-86
2024/01/26 05:34:03;;;;;;;0.73;0.25;;;;;;;-146.30;100.00;58188.94;10369024;28;20136;-88
2024/01/26 05:39:05;;;;;;;8.30;1.33;;;;;;;-146.30;100.00;58188.94;10394465;28;20054;-85
2024/01/26 05:44:07;;;;;;;0.40;0.40;;;;;;;-146.30;100.00;58188.94;10359698;28;20141;-86
2024/01/26 05:49:09;;;;;;;1.15;0.43;;;;;;;-146.30;100.00;58188.94;10385878;28;20048;-87
2024/01/26 05:54:14;;;;;;;0.55;0.55;;;;;;;-146.30;100.00;58188.94;10367358;28;20049;-89
2024/01/26 05:59:16;;;;;;;0.10;0.10;;;;;;;-146.30;100.00;58188.94;10373685;28;20053;-88
2024/01/26 06:04:18;;;;;;;1.20;0.65;;;;;;;-146.30;100.00;58188.94;10381033;28;20141;-88
2024/01/26 06:09:20;;;;;;;2.65;0.60;;;;;;;-146.30;100.00;58188.94;10373149;28;20050;-86
2024/01/26 06:14:22;;;;;;;0.73;0.52;;;;;;;-146.30;100.00;58188.94;10384383;28;20053;-84
2024/01/26 06:19:24;;;;;;;0.45;0.30;;;;;;;-146.30;100.00;58188.94;10368577;28;20092;-85
2024/01/26 06:24:27;;;;;;;0.90;0.47;;;;;;;-146.30;100.00;58188.94;10371557;28;20408;-87
2024/01/26 06:29:28;;;;;;;0.68;0.60;;;;;;;-146.30;100.00;58188.94;10380616;28;20060;-88
2024/01/26 06:34:30;;;;;;;0.10;0.10;;;;;;;-146.30;100.00;58188.94;10368601;28;20135;-87
2024/01/26 06:39:33;;;;;;;1.50;0.90;;;;;;;-146.30;100.00;58188.94;10398270;28;20033;-88
2024/01/26 06:44:34;;;;;;;0.40;0.38;;;;;;;-146.30;100.00;58188.94;10385181;28;20056;-86
2024/01/26 06:49:36;;;;;;;0.75;0.73;;;;;;;-146.30;100.00;58188.94;10376953;28;20037;-86
2024/01/26 06:54:38;;;;;;;1.70;0.77;;;;;;;-146.30;100.00;58188.94;10366853;28;20157;-88
2024/01/26 06:59:40;;;;;;;0.28;0.28;;;;;;;-146.30;100.00;58188.94;10377285;28;20124;-87
2024/01/26 07:04:43;;;;;;;2.33;0.70;;;;;;;-146.30;100.00;58188.94;10368895;28;20052;-90
2024/01/26 07:09:45;;;;;;;1.17;0.43;;;;;;;-146.30;100.00;58188.94;10385422;28;20112;-90
2024/01/26 07:14:46;;;;;;;0.65;0.40;;;;;;;-146.30;100.00;58188.94;10380216;28;20042;-92
2024/01/26 07:19:48;;;;;;;1.55;0.85;;;;;;;-146.30;100.00;58188.94;10393152;28;20053;-89
2024/01/26 07:24:50;;;;;;;0.85;0.60;;;;;;;-146.30;100.00;58188.94;10388649;28;20057;-90
2024/01/26 07:29:52;;;;;;;0.75;0.52;;;;;;;-146.30;100.00;58188.94;10392199;28;20083;-90
2024/01/26 07:34:54;;;;;;;0.95;0.25;;;;;;;-146.30;100.00;58188.94;10394394;28;20059;-91
2024/01/26 07:39:56;;;;;;;0.13;0.13;;;;;;;-146.30;100.00;58188.94;10403558;28;20046;-90
2024/01/26 07:44:58;;;;;;;0.00;0.00;;;;;;;-146.30;100.00;58188.94;10373717;28;20135;-91
2024/01/26 07:50:04;;;;;;;0.75;0.43;;;;;;;-146.30;100.00;58188.94;10403794;28;20045;-92
2024/01/26 07:55:08;;;;;;;0.63;0.32;;;;;;;-146.30;100.00;58188.94;10388950;28;20046;-91
2024/01/26 08:00:11;;;;;;;0.95;0.73;;;;;;;-146.30;100.00;58188.94;10365630;28;20129;-91
2024/01/26 08:05:13;;;;;;;0.13;0.13;;;;;;;-146.30;100.00;58188.94;10395388;28;20054;-89
2024/01/26 08:10:17;;;;;;;0.40;0.30;;;;;;;-146.30;100.00;58188.94;10412807;28;20084;-89
2024/01/26 08:15:21;;;;;;;0.13;0.13;;;;;;;-146.30;100.00;58188.94;10388806;28;20041;-91
2024/01/26 08:20:23;;;;;;;0.70;0.45;;;;;;;-146.30;100.00;58188.94;10366682;28;20497;-91
2024/01/26 08:25:26;;;;;;;0.20;0.13;;;;;;;-146.30;100.00;58188.94;10393146;28;20065;-92
2024/01/26 08:30:28;;;;;;;1.00;0.75;;;;;;;-146.30;100.00;58188.94;10390481;28;20116;-91
2024/01/26 08:35:30;;;;;;;0.63;0.43;;;;;;;-146.30;100.00;58188.94;10370558;28;20472;-90
2024/01/26 08:40:33;;;;;;;0.47;0.30;;;;;;;-146.30;100.00;58188.94;10383494;28;20052;-92
2024/01/26 08:45:34;;;;;;;0.25;0.13;;;;;;;-146.30;100.00;58188.94;10373272;28;20598;-91
2024/01/26 08:50:36;;;;;;;0.15;0.15;;;;;;;-146.30;100.00;58188.94;10389280;28;20050;-87
2024/01/26 08:55:39;;;;;;;0.90;0.43;;;;;;;-146.30;100.00;58188.94;10375616;28;20056;-88
2024/01/26 09:00:41;;;;;;;1.38;0.50;;;;;;;-146.30;100.00;58188.94;10386813;28;20124;-89
2024/01/26 09:05:43;;;;;;;2.63;0.52;;;;;;;-146.30;100.00;58188.94;10368744;28;20108;-91
2024/01/26 09:10:45;;;;;;;6.13;2.43;;;;;;;-146.30;100.00;58188.94;10338835;28;1141559;-92
2024/01/26 09:15:47;;;;;;;1.25;1.17;;;;;;;-146.30;100.00;58188.94;10366540;28;20363;-88
2024/01/26 09:20:49;;;;;;;0.50;0.50;;;;;;;-146.30;100.00;58188.94;10374801;28;20456;-88
2024/01/26 09:25:51;;;;;;;0.70;0.60;;;;;;;-146.30;100.00;58188.94;10364766;28;20080;-89
2024/01/26 09:30:53;;;;;;;0.38;0.38;;;;;;;-146.30;100.00;58188.94;10371881;28;20134;-89
2024/01/26 09:35:56;;;;;;;0.80;0.75;;;;;;;-146.30;100.00;58188.94;10374783;28;20520;-88
2024/01/26 09:40:58;;;;;;;0.30;0.30;;;;;;;-146.30;100.00;58188.94;10399419;28;20045;-89
2024/01/26 09:46:00;;;;;;;0.85;0.52;;;;;;;-146.30;100.00;58188.94;10373122;28;20055;-88
2024/01/26 09:51:02;;;;;;;0.63;0.43;;;;;;;-146.30;100.00;58188.94;10385163;28;20077;-88
2024/01/26 09:56:06;;;;;;;0.10;0.10;;;;;;;-146.30;100.00;58188.94;10375012;28;20057;-89
2024/01/26 10:01:10;;;;;;;0.43;0.30;;;;;;;-146.30;100.00;58188.94;10371901;28;20097;-85
2024/01/26 10:06:12;;;;;;;0.00;0.00;;;;;;;-146.30;100.00;58188.94;10353263;28;20049;-84
2024/01/26 10:11:14;;;;;;;0.77;0.10;;;;;;;-146.30;100.00;58188.94;10383330;28;20045;-87
2024/01/26 10:16:15;;;;;;;0.00;0.00;;;;;;;-146.30;100.00;58188.94;10369973;28;20513;-88
2024/01/26 10:21:18;;;;;;;0.00;0.00;;;;;;;-146.30;100.00;58188.94;10367130;28;20041;-89
2024/01/26 10:26:20;;;;;;;0.00;0.00;;;;;;;-146.30;100.00;58188.94;10389456;28;20049;-87
2024/01/26 10:31:25;;;;;;;0.00;0.00;;;;;;;-146.30;100.00;58188.94;10390603;28;20161;-87
2024/01/26 10:36:27;;;;;;;0.10;0.10;;;;;;;-146.30;100.00;58188.94;10376299;28;20481;-83
2024/01/26 10:41:37;;;;;;;0.10;0.10;;;;;;;-146.30;100.00;58188.94;10363799;28;20046;-85
2024/01/26 10:46:40;;;;;;;0.00;0.00;;;;;;;-146.30;100.00;58188.94;10366766;28;20053;-84
2024/01/26 10:51:43;;;;;;;0.00;0.00;;;;;;;-146.30;100.00;58188.94;10370196;28;20074;-85
2024/01/26 10:56:45;;;;;;;0.20;0.00;;;;;;;-146.30;100.00;58188.94;10379209;28;20644;-83
2024/01/26 11:01:47;;;;;;;0.20;0.15;;;;;;;-146.30;100.00;58188.94;10380716;28;20129;-84
2024/01/26 11:06:49;;;;;;;0.00;0.00;;;;;;;-146.30;100.00;58188.94;10368012;28;20057;-83
2024/01/26 11:11:52;;;;;;;0.00;0.00;;;;;;;-146.30;100.00;58188.94;10374745;28;20072;-85
2024/01/26 11:17:07;;;;;;;3.92;1.35;;;;;;;-146.30;100.00;58188.94;10349746;28;20141;-83
2024/01/26 11:22:14;;;;;;;0.00;0.00;;;;;;;-146.30;100.00;58188.94;10374909;28;20049;-84
2024/01/26 11:27:16;;;;;;;0.00;0.00;;;;;;;-146.30;100.00;58188.94;10379886;28;20124;-82
2024/01/26 11:32:19;;;;;;;2.10;0.10;;;;;;;-146.30;100.00;58188.94;10388527;28;20452;-83
2024/01/26 11:37:21;;;;;;;0.00;0.00;;;;;;;-146.30;100.00;58188.94;10365549;28;20070;-83
2024/01/26 11:42:23;;;;;;;0.75;0.32;;;;;;;-146.30;100.00;58188.94;10374214;28;20480;-82
2024/01/26 11:47:27;;;;;;;0.00;0.00;;;;;;;-146.30;100.00;58188.94;10378927;28;20547;-86
2024/01/26 11:52:29;;;;;;;0.00;0.00;;;;;;;-146.30;100.00;58188.94;10383117;28;20560;-83
2024/01/26 11:57:35;;;;;;;0.38;0.20;;;;;;;-146.30;100.00;58188.94;10393769;28;20144;-83
2024/01/26 12:02:37;;;;;;;0.00;0.00;;;;;;;-146.30;100.00;58188.94;10381687;28;20120;-82
2024/01/26 12:07:39;;;;;;;0.00;0.00;;;;;;;-146.30;100.00;58188.94;10369546;28;20058;-84
2024/01/26 12:12:42;;;;;;;4.40;0.47;;;;;;;-146.30;100.00;58188.94;10379049;28;20053;-83
2024/01/26 12:17:47;;;;;;;0.30;0.20;;;;;;;-146.30;100.00;58188.94;10381369;28;20064;-83
2024/01/26 12:22:49;;;;;;;0.00;0.00;;;;;;;-146.30;100.00;58188.94;10387512;28;20081;-82
2024/01/26 12:27:50;;;;;;;0.00;0.00;;;;;;;-146.30;100.00;58188.94;10382678;28;20489;-82
2024/01/26 12:32:53;;;;;;;11.20;1.20;;;;;;;-146.30;100.00;58188.94;10391289;28;20061;-83
2024/01/26 12:37:55;;;;;;;0.00;0.00;;;;;;;-146.30;100.00;58188.94;10400655;28;20050;-82
2024/01/26 12:42:57;;;;;;;0.00;0.00;;;;;;;-146.30;100.00;58188.94;10379392;28;20074;-82
2024/01/26 12:47:59;;;;;;;1.88;0.15;;;;;;;-146.30;100.00;58188.94;10374801;28;20224;-83
2024/01/26 12:53:01;;;;;;;0.00;0.00;;;;;;;-146.30;100.00;58188.94;10379003;28;20492;-83
2024/01/26 12:58:03;;;;;;;0.45;0.43;;;;;;;-146.30;100.00;58188.94;10384913;28;20092;-83
2024/01/26 13:03:05;;;;;;;0.00;0.00;;;;;;;-146.30;100.00;58188.94;10379345;28;20160;-85
2024/01/26 13:08:07;;;;;;;0.38;0.20;;;;;;;-146.30;100.00;58188.94;10383483;28;20148;-82
2024/01/26 13:13:09;;;;;;;1.38;0.40;;;;;;;-146.30;100.00;58188.94;10384555;28;20053;-83
2024/01/26 13:18:13;;;;;;;1.27;0.65;;;;;;;-146.30;100.00;58188.94;10363445;28;20058;-84
2024/01/26 13:23:27;;;;;;;0.38;0.30;;;;;;;-146.30;100.00;58188.94;10383529;28;20123;-83
2024/01/26 13:28:32;;;;;;;5.05;0.98;;;;;;;-146.30;100.00;58188.94;10377472;28;20042;-85
2024/01/26 13:33:34;;;;;;;0.00;0.00;;;;;;;-146.30;100.00;58188.94;10380707;28;20544;-84
2024/01/26 13:38:36;;;;;;;0.00;0.00;;;;;;;-146.30;100.00;58188.94;10368100;28;20049;-83
2024/01/26 13:43:39;;;;;;;0.00;0.00;;;;;;;-146.30;100.00;58188.94;10380773;28;20044;-82
2024/01/26 13:48:40;;;;;;;0.00;0.00;;;;;;;-146.30;100.00;58188.94;10382672;28;20048;-82
2024/01/26 13:53:42;;;;;;;1.17;0.22;;;;;;;-146.30;100.00;58188.94;10386392;28;20045;-82
2024/01/26 13:58:44;;;;;;;0.00;0.00;;;;;;;-146.30;100.00;58188.94;10369038;28;20053;-84
2024/01/26 14:03:47;;;;;;;0.80;0.40;;;;;;;-146.30;100.00;58188.94;10381473;28;20054;-84
2024/01/26 14:08:49;;;;;;;0.00;0.00;;;;;;;-146.30;100.00;58188.94;10354106;28;20038;-85
2024/01/26 14:13:51;;;;;;;1.77;0.43;;;;;;;-146.30;100.00;58188.94;10385305;28;20060;-82
2024/01/26 14:18:53;;;;;;;0.00;0.00;;;;;;;-146.30;100.00;58188.94;10379033;28;20097;-83
2024/01/26 14:23:55;;;;;;;0.00;0.00;;;;;;;-146.30;100.00;58188.94;10393960;28;20064;-82
2024/01/26 14:28:57;;;;;;;0.20;0.20;;;;;;;-146.30;100.00;58188.94;10359841;28;20409;-84
2024/01/26 14:33:58;;;;;;;0.00;0.00;;;;;;;-146.30;100.00;58188.94;10396547;28;20152;-82
2024/01/26 14:39:03;;;;;;;0.00;0.00;;;;;;;-146.30;100.00;58188.94;10374711;28;20056;-84
2024/01/26 14:44:05;;;;;;;0.00;0.00;;;;;;;-146.30;100.00;58188.94;10385324;28;20046;-83
2024/01/26 14:49:07;;;;;;;0.00;0.00;;;;;;;-146.30;100.00;58188.94;10381809;28;20045;-84
2024/01/26 14:54:09;;;;;;;1.88;0.45;;;;;;;-146.30;100.00;58188.94;10392978;28;20260;-84
2024/01/26 14:59:11;;;;;;;0.00;0.00;;;;;;;-146.30;100.00;58188.94;10376087;28;20051;-82
2024/01/26 15:04:12;;;;;;;0.00;0.00;;;;;;;-146.30;100.00;58188.94;10368781;28;20132;-84
2024/01/26 15:09:15;;;;;;;0.15;0.15;;;;;;;-146.30;100.00;58188.94;10367848;28;20052;-83
2024/01/26 15:14:17;;;;;;;0.10;0.10;;;;;;;-146.30;100.00;58188.94;10390270;28;20104;-84
2024/01/26 15:19:18;;;;;;;0.00;0.00;;;;;;;-146.30;100.00;58188.94;10365696;28;20164;-84
2024/01/26 15:24:21;;;;;;;0.00;0.00;;;;;;;-146.30;100.00;58188.94;10368301;28;20056;-83
2024/01/26 15:29:26;;;;;;;0.00;0.00;;;;;;;-146.30;100.00;58188.94;10348278;28;20045;-82
2024/01/26 15:34:28;;;;;;;0.00;0.00;;;;;;;-146.30;100.00;58188.94;10380849;28;20066;-83
2024/01/26 15:39:30;;;;;;;0.00;0.00;;;;;;;-146.30;100.00;58188.94;10371405;28;20046;-83
2024/01/26 15:44:32;;;;;;;6.13;0.47;;;;;;;-146.30;100.00;58188.94;10386935;28;20099;-84
2024/01/26 15:49:34;;;;;;;0.20;0.20;;;;;;;-146.30;100.00;58188.94;10384258;28;20044;-84
2024/01/26 15:54:36;;;;;;;0.10;0.00;;;;;;;-146.30;100.00;58188.94;10376639;28;20092;-83
2024/01/26 15:59:38;;;;;;;0.00;0.00;;;;;;;-146.30;100.00;58188.94;10416331;28;20411;-85
2024/01/26 16:04:40;;;;;;;0.00;0.00;;;;;;;-146.30;100.00;58188.94;10370736;28;20046;-83
2024/01/26 16:09:42;;;;;;;0.17;0.13;;;;;;;-146.30;100.00;58188.94;10369262;28;20486;-82
2024/01/26 16:14:45;;;;;;;0.13;0.13;;;;;;;-146.30;100.00;58188.94;10362908;28;20133;-82
2024/01/26 16:19:47;;;;;;;0.00;0.00;;;;;;;-146.30;100.00;58188.94;10383357;28;20038;-81
2024/01/26 16:24:49;;;;;;;0.30;0.10;;;;;;;-146.30;100.00;58188.94;10378291;28;20057;-83
2024/01/26 16:29:51;;;;;;;0.00;0.00;;;;;;;-146.30;100.00;58188.94;10365074;28;20567;-83
2024/01/26 16:34:52;;;;;;;0.00;0.00;;;;;;;-146.30;100.00;58188.94;10365376;28;20050;-83
2024/01/26 16:39:54;;;;;;;0.00;0.00;;;;;;;-146.30;100.00;58188.94;10381674;28;20129;-82
2024/01/26 16:44:56;;;;;;;0.00;0.00;;;;;;;-146.30;100.00;58188.94;10371316;28;20658;-85
2024/01/26 16:49:58;;;;;;;3.85;0.20;;;;;;;-146.30;100.00;58188.94;10404557;28;20049;-84
2024/01/26 16:55:00;;;;;;;0.00;0.00;;;;;;;-146.30;100.00;58188.94;10369706;28;20492;-83
2024/01/26 17:00:04;;;;;;;0.00;0.00;;;;;;;-146.30;100.00;58188.94;10368900;28;20064;-84
2024/01/26 17:05:06;;;;;;;0.20;0.20;;;;;;;-146.30;100.00;58188.94;10383877;28;20049;-82
2024/01/26 17:10:08;;;;;;;0.00;0.00;;;;;;;-146.30;100.00;58188.94;10384607;28;20041;-84
2024/01/26 17:15:10;;;;;;;0.00;0.00;;;;;;;-146.30;100.00;58188.94;10389690;28;20148;-83
2024/01/26 17:20:11;;;;;;;0.00;0.00;;;;;;;-146.30;100.00;58188.94;10386289;28;20038;-82
2024/01/26 17:25:13;;;;;;;0.00;0.00;;;;;;;-146.30;100.00;58188.94;10396290;28;20042;-82
2024/01/26 17:30:15;;;;;;;0.00;0.00;;;;;;;-146.30;100.00;58188.94;10396316;28;20129;-83
2024/01/26 17:35:17;;;;;;;0.20;0.00;;;;;;;-146.30;100.00;58188.94;10364389;28;20052;-83
2024/01/26 17:40:19;;;;;;;0.00;0.00;;;;;;;-146.30;100.00;58188.94;10391046;28;20129;-84
2024/01/26 17:45:20;;;;;;;0.00;0.00;;;;;;;-146.30;100.00;58188.94;10393067;28;20457;-82
2024/01/26 17:50:22;;;;;;;0.95;0.50;;;;;;;-146.30;100.00;58188.94;10392991;28;20053;-81
2024/01/26 17:55:24;;;;;;;0.00;0.00;;;;;;;-146.30;100.00;58188.94;10364923;28;20477;-82
2024/01/26 18:00:26;;;;;;;0.28;0.28;;;;;;;-146.30;100.00;58188.94;10384096;28;20164;-82
2024/01/26 18:05:28;;;;;;;0.10;0.10;;;;;;;-146.30;100.00;58188.94;10388633;28;20496;-82
2024/01/26 18:10:29;;;;;;;0.00;0.00;;;;;;;-146.30;100.00;58188.94;10374180;28;20137;-82
2024/01/26 18:15:31;;;;;;;0.30;0.20;;;;;;;-146.30;100.00;58188.94;10373226;28;20041;-82
2024/01/26 18:20:34;;;;;;;0.00;0.00;;;;;;;-146.30;100.00;58188.94;10373474;28;20048;-82
2024/01/26 18:25:35;;;;;;;0.00;0.00;;;;;;;-146.30;100.00;58188.94;10374710;28;20055;-82
2024/01/26 18:30:37;;;;;;;0.13;0.13;;;;;;;-146.30;100.00;58188.94;10365431;28;20048;-82
2024/01/26 18:35:39;;;;;;;0.00;0.00;;;;;;;-146.30;100.00;58188.94;10354628;28;20137;-82
2024/01/26 18:40:41;;;;;;;0.08;0.05;;;;;;;-146.30;100.00;58188.94;10386721;28;20041;-82
2024/01/26 18:45:42;;;;;;;0.00;0.00;;;;;;;-146.30;100.00;58188.94;10389907;28;20052;-81
2024/01/26 18:50:44;;;;;;;0.10;0.10;;;;;;;-146.30;100.00;58188.94;10382030;28;20096;-81
2024/01/26 18:55:47;;;;;;;0.60;0.20;;;;;;;-146.30;100.00;58188.94;10367704;28;20041;-81
2024/01/26 19:00:49;;;;;;;0.30;0.30;;;;;;;-146.30;100.00;58188.94;10388880;28;20042;-81
2024/01/26 19:05:51;;;;;;;0.00;0.00;;;;;;;-146.30;100.00;58188.94;10349470;28;20085;-81
2024/01/26 19:10:53;;;;;;;0.00;0.00;;;;;;;-146.30;100.00;58188.94;10370893;28;20140;-82
2024/01/26 19:15:56;;;;;;;0.17;0.10;;;;;;;-146.30;100.00;58188.94;10366291;28;20041;-82
2024/01/26 19:21:00;;;;;;;0.00;0.00;;;;;;;-146.30;100.00;58188.94;10401171;28;20417;-82
2024/01/26 19:26:02;;;;;;;0.00;0.00;;;;;;;-146.30;100.00;58188.94;10373371;28;20050;-82
2024/01/26 19:31:04;;;;;;;0.00;0.00;;;;;;;-146.30;100.00;58188.94;10377447;28;20504;-81
2024/01/26 19:36:06;;;;;;;0.00;0.00;;;;;;;-146.30;100.00;58188.94;10361976;28;20505;-82
2024/01/26 19:41:07;;;;;;;0.00;0.00;;;;;;;-146.30;100.00;58188.94;10390578;28;20041;-81
2024/01/26 19:46:09;;;;;;;0.82;0.60;;;;;;;-146.30;100.00;58188.94;10374428;28;20128;-82
2024/01/26 19:51:12;;;;;;;0.52;0.52;;;;;;;-146.30;100.00;58188.94;10371876;28;20092;-82
2024/01/26 19:56:14;;;;;;;0.10;0.10;;;;;;;-146.30;100.00;58188.94;10357525;28;20506;-81
2024/01/26 20:01:16;;;;;;;0.00;0.00;;;;;;;-146.30;100.00;58188.94;10377122;28;20509;-82
2024/01/26 20:06:18;;;;;;;0.08;0.08;;;;;;;-146.30;100.00;58188.94;10374207;28;20046;-82
2024/01/26 20:11:20;;;;;;;0.55;0.35;;;;;;;-146.30;100.00;58188.94;10372464;28;20064;-82
2024/01/26 20:16:22;;;;;;;0.65;0.25;;;;;;;-146.30;100.00;58188.94;10374395;28;20526;-82
2024/01/26 20:21:24;;;;;;;0.10;0.00;;;;;;;-146.30;100.00;58188.94;10385161;28;20045;-81
2024/01/26 20:26:26;;;;;;;0.73;0.55;;;;;;;-146.30;100.00;58188.94;10389059;28;20053;-82
2024/01/26 20:31:28;;;;;;;0.77;0.65;;;;;;;-146.30;100.00;58188.94;10385256;28;20045;-81
2024/01/26 20:36:30;;;;;;;0.00;0.00;;;;;;;-146.30;100.00;58188.94;10364897;28;20045;-81
2024/01/26 20:41:34;;;;;;;1.98;0.65;;;;;;;-146.30;100.00;58188.94;10383776;28;20420;-81
2024/01/26 20:46:36;;;;;;;0.43;0.38;;;;;;;-146.30;100.00;58188.94;10379695;28;20136;-81
2024/01/26 20:51:38;;;;;;;0.00;0.00;;;;;;;-146.30;100.00;58188.94;10381455;28;20137;-81
2024/01/26 20:56:42;;;;;;;0.85;0.45;;;;;;;-146.30;100.00;58188.94;10380227;28;20128;-82
2024/01/26 21:01:44;;;;;;;0.40;0.38;;;;;;;-146.30;100.00;58188.94;10372843;28;20484;-81
2024/01/26 21:06:47;;;;;;;1.00;0.10;;;;;;;-146.30;100.00;58188.94;10392548;28;20133;-82
2024/01/26 21:11:49;;;;;;;0.98;0.47;;;;;;;-146.30;100.00;58188.94;10363652;28;20049;-82
2024/01/26 21:16:52;;;;;;;2.40;1.02;;;;;;;-146.30;100.00;58188.94;10355599;28;20061;-82
2024/01/26 21:21:54;;;;;;;0.40;0.38;;;;;;;-146.30;100.00;58188.94;10366521;28;20135;-82
2024/01/26 21:26:56;;;;;;;0.00;0.00;;;;;;;-146.30;100.00;58188.94;10354336;28;20050;-82
2024/01/26 21:31:58;;;;;;;0.90;0.30;;;;;;;-146.30;100.00;58188.94;10365734;28;20037;-82
2024/01/26 21:36:59;;;;;;;0.00;0.00;;;;;;;-146.30;100.00;58188.94;10376999;28;20140;-82
2024/01/26 21:42:02;;;;;;;1.35;0.40;;;;;;;-146.30;100.00;58188.94;10381605;28;20038;-82
2024/01/26 21:47:04;;;;;;;0.00;0.00;;;;;;;-146.30;100.00;58188.94;10384484;28;20135;-82
2024/01/26 21:52:05;;;;;;;3.20;0.77;;;;;;;-146.30;100.00;58188.94;10381103;28;20042;-82
2024/01/26 21:57:07;;;;;;;3.78;0.38;;;;;;;-146.30;100.00;58188.94;10376763;28;20046;-82
2024/01/26 22:02:09;;;;;;;0.40;0.30;;;;;;;-146.30;100.00;58188.94;10379414;28;20041;-83
2024/01/26 22:07:11;;;;;;;0.10;0.08;;;;;;;-146.30;100.00;58188.94;10363502;28;20052;-82
2024/01/26 22:12:13;;;;;;;0.65;0.65;;;;;;;-146.30;100.00;58188.94;10386298;28;20046;-82
2024/01/26 22:17:15;;;;;;;12.85;3.63;;;;;;;-146.30;100.00;58188.94;10379593;28;20049;-82
2024/01/26 22:22:17;;;;;;;2.17;0.20;;;;;;;-146.30;100.00;58188.94;10366375;28;20056;-82
2024/01/26 22:27:19;;;;;;;0.28;0.28;;;;;;;-146.30;100.00;58188.94;10377105;28;20658;-83
2024/01/26 22:32:22;;;;;;;0.17;0.17;;;;;;;-146.30;100.00;58188.94;10396761;28;20042;-82
2024/01/26 22:37:24;;;;;;;0.20;0.20;;;;;;;-146.30;100.00;58188.94;10359321;28;20080;-82